sensor_id;sensor_type;location;lat;lon;timestamp;pressure;altitude;pressure_sealevel;temperature;humidity
37832;BME280;23671;38.090;-122.570;2023-06-14T00:00:02;101420.47;;;26.12;47.66
37832;BME280;23671;38.090;-122.570;2023-06-14T00:02:30;101417.97;;;26.11;47.36
37832;BME280;23671;38.090;-122.570;2023-06-14T00:04:57;101417.97;;;26.11;47.51
37832;BME280;23671;38.090;-122.570;2023-06-14T00:07:36;101403.59;;;26.10;47.17
37832;BME280;23671;38.090;-122.570;2023-06-14T00:10:05;101415.47;;;26.09;47.32
37832;BME280;23671;38.090;-122.570;2023-06-14T00:12:32;101415.47;;;26.09;47.21
37832;BME280;23671;38.090;-122.570;2023-06-14T00:14:59;101412.94;;;26.07;47.13
37832;BME280;23671;38.090;-122.570;2023-06-14T00:17:28;101402.13;;;26.07;47.13
37832;BME280;23671;38.090;-122.570;2023-06-14T00:19:59;101400.47;;;26.06;47.24
37832;BME280;23671;38.090;-122.570;2023-06-14T00:22:26;101406.06;;;26.05;46.83
37832;BME280;23671;38.090;-122.570;2023-06-14T00:24:55;101403.53;;;26.03;46.94
37832;BME280;23671;38.090;-122.570;2023-06-14T00:27:22;101397.50;;;26.01;46.73
37832;BME280;23671;38.090;-122.570;2023-06-14T00:29:49;101398.53;;;26.00;46.70
37832;BME280;23671;38.090;-122.570;2023-06-14T00:32:17;101401.69;;;25.97;46.75
37832;BME280;23671;38.090;-122.570;2023-06-14T00:34:45;101399.16;;;25.96;46.46
37832;BME280;23671;38.090;-122.570;2023-06-14T00:37:12;101402.06;;;25.94;46.44
37832;BME280;23671;38.090;-122.570;2023-06-14T00:39:39;101410.41;;;25.93;46.73
37832;BME280;23671;38.090;-122.570;2023-06-14T00:42:06;101398.94;;;25.91;46.28
37832;BME280;23671;38.090;-122.570;2023-06-14T00:44:33;101394.75;;;25.88;46.48
37832;BME280;23671;38.090;-122.570;2023-06-14T00:47:00;101391.22;;;25.88;46.19
37832;BME280;23671;38.090;-122.570;2023-06-14T00:49:30;101385.22;;;25.86;46.56
37832;BME280;23671;38.090;-122.570;2023-06-14T00:51:57;101387.28;;;25.84;46.43
37832;BME280;23671;38.090;-122.570;2023-06-14T00:54:24;101383.09;;;25.81;46.34
37832;BME280;23671;38.090;-122.570;2023-06-14T00:56:52;101381.41;;;25.80;46.34
37832;BME280;23671;38.090;-122.570;2023-06-14T00:59:19;101381.63;;;25.79;46.30
37832;BME280;23671;38.090;-122.570;2023-06-14T01:01:46;101379.34;;;25.76;46.57
37832;BME280;23671;38.090;-122.570;2023-06-14T01:04:14;101388.06;;;25.71;46.41
37832;BME280;23671;38.090;-122.570;2023-06-14T01:06:49;101391.19;;;25.68;46.47
37832;BME280;23671;38.090;-122.570;2023-06-14T01:09:36;101382.63;;;25.65;46.67
37832;BME280;23671;38.090;-122.570;2023-06-14T01:12:14;101381.19;;;25.62;46.68
37832;BME280;23671;38.090;-122.570;2023-06-14T01:14:42;101378.84;;;25.59;46.56
37832;BME280;23671;38.090;-122.570;2023-06-14T01:17:09;101390.72;;;25.58;46.30
37832;BME280;23671;38.090;-122.570;2023-06-14T01:19:46;101393.81;;;25.55;46.58
37832;BME280;23671;38.090;-122.570;2023-06-14T01:22:13;101391.53;;;25.52;46.45
37832;BME280;23671;38.090;-122.570;2023-06-14T01:24:41;101379.88;;;25.52;46.31
37832;BME280;23671;38.090;-122.570;2023-06-14T01:27:12;101380.50;;;25.47;46.38
37832;BME280;23671;38.090;-122.570;2023-06-14T01:29:39;101387.97;;;25.45;46.25
37832;BME280;23671;38.090;-122.570;2023-06-14T01:32:12;101392.13;;;25.41;46.95
37832;BME280;23671;38.090;-122.570;2023-06-14T01:34:40;101389.25;;;24.81;43.15
37832;BME280;23671;38.090;-122.570;2023-06-14T01:37:07;101395.84;;;24.51;43.61
37832;BME280;23671;38.090;-122.570;2023-06-14T01:39:35;101388.69;;;24.01;44.12
37832;BME280;23671;38.090;-122.570;2023-06-14T01:42:02;101382.63;;;23.78;44.41
37832;BME280;23671;38.090;-122.570;2023-06-14T01:44:31;101382.75;;;24.26;44.89
37832;BME280;23671;38.090;-122.570;2023-06-14T01:46:59;101383.50;;;24.42;44.40
37832;BME280;23671;38.090;-122.570;2023-06-14T01:49:26;101385.50;;;24.54;44.58
37832;BME280;23671;38.090;-122.570;2023-06-14T01:51:54;101374.34;;;24.64;44.42
37832;BME280;23671;38.090;-122.570;2023-06-14T01:54:21;101375.63;;;24.68;44.28
37832;BME280;23671;38.090;-122.570;2023-06-14T01:56:49;101367.31;;;24.69;44.19
37832;BME280;23671;38.090;-122.570;2023-06-14T01:59:16;101372.06;;;24.67;44.22
37832;BME280;23671;38.090;-122.570;2023-06-14T02:01:44;101366.25;;;24.64;44.23
37832;BME280;23671;38.090;-122.570;2023-06-14T02:04:12;101374.34;;;24.64;44.03
37832;BME280;23671;38.090;-122.570;2023-06-14T02:06:40;101378.91;;;24.63;44.17
37832;BME280;23671;38.090;-122.570;2023-06-14T02:09:07;101388.44;;;24.59;43.94
37832;BME280;23671;38.090;-122.570;2023-06-14T02:11:35;101372.34;;;24.51;43.94
37832;BME280;23671;38.090;-122.570;2023-06-14T02:14:02;101375.91;;;24.52;43.99
37832;BME280;23671;38.090;-122.570;2023-06-14T02:16:29;101371.91;;;24.48;43.99
37832;BME280;23671;38.090;-122.570;2023-06-14T02:18:58;101375.03;;;24.45;44.00
37832;BME280;23671;38.090;-122.570;2023-06-14T02:21:25;101380.00;;;24.41;43.88
37832;BME280;23671;38.090;-122.570;2023-06-14T02:23:53;101386.16;;;24.35;43.90
37832;BME280;23671;38.090;-122.570;2023-06-14T02:26:21;101397.34;;;24.32;43.91
37832;BME280;23671;38.090;-122.570;2023-06-14T02:28:49;101395.22;;;24.27;43.84
37832;BME280;23671;38.090;-122.570;2023-06-14T02:31:16;101393.94;;;24.23;43.80
37832;BME280;23671;38.090;-122.570;2023-06-14T02:33:43;101399.53;;;24.22;43.97
37832;BME280;23671;38.090;-122.570;2023-06-14T02:36:10;101403.81;;;24.16;43.74
37832;BME280;23671;38.090;-122.570;2023-06-14T02:38:38;101399.03;;;24.12;43.72
37832;BME280;23671;38.090;-122.570;2023-06-14T02:41:05;101394.84;;;24.09;43.80
37832;BME280;23671;38.090;-122.570;2023-06-14T02:43:32;101390.84;;;24.05;43.84
37832;BME280;23671;38.090;-122.570;2023-06-14T02:46:00;101400.53;;;24.00;43.80
37832;BME280;23671;38.090;-122.570;2023-06-14T02:48:27;101404.44;;;23.97;43.73
37832;BME280;23671;38.090;-122.570;2023-06-14T02:50:54;101401.69;;;23.91;43.79
37832;BME280;23671;38.090;-122.570;2023-06-14T02:53:22;101411.81;;;23.89;43.79
37832;BME280;23671;38.090;-122.570;2023-06-14T02:55:49;101399.28;;;23.81;43.82
37832;BME280;23671;38.090;-122.570;2023-06-14T02:58:16;101396.13;;;23.78;43.87
37832;BME280;23671;38.090;-122.570;2023-06-14T03:00:44;101394.84;;;23.74;43.72
37832;BME280;23671;38.090;-122.570;2023-06-14T03:03:11;101402.66;;;23.69;43.63
37832;BME280;23671;38.090;-122.570;2023-06-14T03:05:46;101412.34;;;23.63;43.68
37832;BME280;23671;38.090;-122.570;2023-06-14T03:08:16;101415.25;;;23.62;43.64
37832;BME280;23671;38.090;-122.570;2023-06-14T03:10:46;101404.38;;;23.55;43.58
37832;BME280;23671;38.090;-122.570;2023-06-14T03:13:14;101403.06;;;23.51;43.60
37832;BME280;23671;38.090;-122.570;2023-06-14T03:15:42;101410.91;;;23.46;43.39
37832;BME280;23671;38.090;-122.570;2023-06-14T03:18:09;101405.22;;;23.41;43.53
37832;BME280;23671;38.090;-122.570;2023-06-14T03:20:38;101397.91;;;23.35;43.42
37832;BME280;23671;38.090;-122.570;2023-06-14T03:23:05;101398.25;;;23.32;43.39
37832;BME280;23671;38.090;-122.570;2023-06-14T03:25:33;101389.88;;;23.27;43.47
37832;BME280;23671;38.090;-122.570;2023-06-14T03:28:05;101393.50;;;23.19;43.50
37832;BME280;23671;38.090;-122.570;2023-06-14T03:30:32;101387.81;;;23.14;43.25
37832;BME280;23671;38.090;-122.570;2023-06-14T03:32:59;101382.53;;;23.06;43.31
37832;BME280;23671;38.090;-122.570;2023-06-14T03:35:29;101395.94;;;23.00;43.39
37832;BME280;23671;38.090;-122.570;2023-06-14T03:37:56;101397.31;;;22.96;43.39
37832;BME280;23671;38.090;-122.570;2023-06-14T03:40:23;101397.59;;;22.86;43.49
37832;BME280;23671;38.090;-122.570;2023-06-14T03:42:54;101406.03;;;22.83;43.34
37832;BME280;23671;38.090;-122.570;2023-06-14T03:45:22;101406.59;;;22.79;43.38
37832;BME280;23671;38.090;-122.570;2023-06-14T03:47:49;101411.41;;;22.69;43.47
37832;BME280;23671;38.090;-122.570;2023-06-14T03:50:18;101409.44;;;22.63;43.33
37832;BME280;23671;38.090;-122.570;2023-06-14T03:52:47;101416.38;;;22.57;43.42
37832;BME280;23671;38.090;-122.570;2023-06-14T03:55:15;101412.53;;;22.51;43.33
37832;BME280;23671;38.090;-122.570;2023-06-14T03:57:42;101424.50;;;22.49;43.36
37832;BME280;23671;38.090;-122.570;2023-06-14T04:00:10;101422.06;;;22.39;43.42
37832;BME280;23671;38.090;-122.570;2023-06-14T04:02:39;101433.38;;;22.35;43.43
37832;BME280;23671;38.090;-122.570;2023-06-14T04:05:06;101416.06;;;22.29;43.51
37832;BME280;23671;38.090;-122.570;2023-06-14T04:07:35;101432.13;;;22.23;43.58
37832;BME280;23671;38.090;-122.570;2023-06-14T04:10:12;101422.06;;;22.17;43.58
37832;BME280;23671;38.090;-122.570;2023-06-14T04:12:40;101417.41;;;22.11;43.69
37832;BME280;23671;38.090;-122.570;2023-06-14T04:15:07;101419.28;;;22.02;43.57
37832;BME280;23671;38.090;-122.570;2023-06-14T04:17:38;101419.84;;;21.98;43.71
37832;BME280;23671;38.090;-122.570;2023-06-14T04:20:05;101425.28;;;21.90;43.62
37832;BME280;23671;38.090;-122.570;2023-06-14T04:22:34;101425.63;;;21.87;43.64
37832;BME280;23671;38.090;-122.570;2023-06-14T04:25:03;101419.78;;;21.75;43.84
37832;BME280;23671;38.090;-122.570;2023-06-14T04:27:32;101418.63;;;21.69;43.83
37832;BME280;23671;38.090;-122.570;2023-06-14T04:30:02;101421.84;;;21.65;43.72
37832;BME280;23671;38.090;-122.570;2023-06-14T04:32:30;101425.56;;;21.56;43.93
37832;BME280;23671;38.090;-122.570;2023-06-14T04:35:00;101435.84;;;21.52;43.95
37832;BME280;23671;38.090;-122.570;2023-06-14T04:37:30;101437.38;;;21.47;43.97
37832;BME280;23671;38.090;-122.570;2023-06-14T04:39:57;101436.03;;;21.43;43.87
37832;BME280;23671;38.090;-122.570;2023-06-14T04:42:25;101443.44;;;21.41;43.84
37832;BME280;23671;38.090;-122.570;2023-06-14T04:44:58;101444.50;;;21.32;44.10
37832;BME280;23671;38.090;-122.570;2023-06-14T04:47:25;101449.56;;;21.27;44.07
37832;BME280;23671;38.090;-122.570;2023-06-14T04:49:57;101452.94;;;21.21;44.11
37832;BME280;23671;38.090;-122.570;2023-06-14T04:52:27;101452.78;;;21.14;43.98
37832;BME280;23671;38.090;-122.570;2023-06-14T04:54:56;101451.63;;;21.09;44.11
37832;BME280;23671;38.090;-122.570;2023-06-14T04:57:23;101447.94;;;21.02;44.10
37832;BME280;23671;38.090;-122.570;2023-06-14T04:59:52;101454.63;;;20.98;44.22
37832;BME280;23671;38.090;-122.570;2023-06-14T05:02:24;101447.25;;;20.92;44.24
37832;BME280;23671;38.090;-122.570;2023-06-14T05:04:52;101437.88;;;20.88;44.28
37832;BME280;23671;38.090;-122.570;2023-06-14T05:07:21;101435.84;;;20.81;44.39
37832;BME280;23671;38.090;-122.570;2023-06-14T05:09:49;101435.34;;;20.78;44.49
37832;BME280;23671;38.090;-122.570;2023-06-14T05:12:16;101443.72;;;20.75;44.23
37832;BME280;23671;38.090;-122.570;2023-06-14T05:14:45;101443.25;;;20.71;44.34
37832;BME280;23671;38.090;-122.570;2023-06-14T05:17:12;101445.59;;;20.66;44.38
37832;BME280;23671;38.090;-122.570;2023-06-14T05:19:39;101452.31;;;20.62;44.34
37832;BME280;23671;38.090;-122.570;2023-06-14T05:22:07;101455.00;;;20.54;44.39
37832;BME280;23671;38.090;-122.570;2023-06-14T05:24:34;101448.81;;;20.46;44.08
37832;BME280;23671;38.090;-122.570;2023-06-14T05:27:01;101451.31;;;20.39;44.20
37832;BME280;23671;38.090;-122.570;2023-06-14T05:29:28;101435.38;;;20.30;44.41
37832;BME280;23671;38.090;-122.570;2023-06-14T05:31:55;101441.22;;;20.25;44.28
37832;BME280;23671;38.090;-122.570;2023-06-14T05:34:22;101441.75;;;20.21;44.45
37832;BME280;23671;38.090;-122.570;2023-06-14T05:36:49;101441.69;;;20.13;44.34
37832;BME280;23671;38.090;-122.570;2023-06-14T05:39:17;101444.00;;;20.08;44.51
37832;BME280;23671;38.090;-122.570;2023-06-14T05:41:44;101430.09;;;20.04;44.39
37832;BME280;23671;38.090;-122.570;2023-06-14T05:44:11;101426.41;;;19.97;44.61
37832;BME280;23671;38.090;-122.570;2023-06-14T05:46:38;101426.91;;;19.92;44.51
37832;BME280;23671;38.090;-122.570;2023-06-14T05:49:06;101432.78;;;19.88;44.65
37832;BME280;23671;38.090;-122.570;2023-06-14T05:51:33;101421.69;;;19.83;44.71
37832;BME280;23671;38.090;-122.570;2023-06-14T05:54:00;101405.25;;;19.78;44.81
37832;BME280;23671;38.090;-122.570;2023-06-14T05:56:27;101424.34;;;19.75;44.66
37832;BME280;23671;38.090;-122.570;2023-06-14T05:58:54;101434.72;;;19.70;44.86
37832;BME280;23671;38.090;-122.570;2023-06-14T06:01:21;101441.41;;;19.66;44.76
37832;BME280;23671;38.090;-122.570;2023-06-14T06:03:49;101439.19;;;19.61;44.81
37832;BME280;23671;38.090;-122.570;2023-06-14T06:06:16;101445.56;;;19.60;44.67
37832;BME280;23671;38.090;-122.570;2023-06-14T06:08:43;101434.13;;;19.50;44.87
37832;BME280;23671;38.090;-122.570;2023-06-14T06:11:11;101439.81;;;19.47;44.82
37832;BME280;23671;38.090;-122.570;2023-06-14T06:13:38;101434.25;;;19.41;44.98
37832;BME280;23671;38.090;-122.570;2023-06-14T06:16:05;101435.28;;;19.40;44.90
37832;BME280;23671;38.090;-122.570;2023-06-14T06:18:32;101444.63;;;19.36;44.85
37832;BME280;23671;38.090;-122.570;2023-06-14T06:21:00;101446.75;;;19.32;44.97
37832;BME280;23671;38.090;-122.570;2023-06-14T06:23:29;101441.19;;;19.26;45.12
37832;BME280;23671;38.090;-122.570;2023-06-14T06:25:56;101438.81;;;19.23;44.96
37832;BME280;23671;38.090;-122.570;2023-06-14T06:28:23;101434.13;;;19.17;45.13
37832;BME280;23671;38.090;-122.570;2023-06-14T06:30:50;101435.09;;;19.16;44.95
37832;BME280;23671;38.090;-122.570;2023-06-14T06:33:17;101436.75;;;19.09;45.23
37832;BME280;23671;38.090;-122.570;2023-06-14T06:35:44;101430.72;;;19.07;45.32
37832;BME280;23671;38.090;-122.570;2023-06-14T06:38:12;101434.72;;;19.02;45.21
37832;BME280;23671;38.090;-122.570;2023-06-14T06:40:39;101434.19;;;18.99;45.39
37832;BME280;23671;38.090;-122.570;2023-06-14T06:43:06;101434.47;;;18.96;45.29
37832;BME280;23671;38.090;-122.570;2023-06-14T06:45:33;101422.41;;;18.92;45.39
37832;BME280;23671;38.090;-122.570;2023-06-14T06:48:00;101426.56;;;18.86;45.47
37832;BME280;23671;38.090;-122.570;2023-06-14T06:50:27;101429.56;;;18.83;45.47
37832;BME280;23671;38.090;-122.570;2023-06-14T06:52:54;101424.69;;;18.79;45.64
37832;BME280;23671;38.090;-122.570;2023-06-14T06:55:21;101425.97;;;18.75;45.63
37832;BME280;23671;38.090;-122.570;2023-06-14T06:57:49;101426.31;;;18.72;45.74
37832;BME280;23671;38.090;-122.570;2023-06-14T07:00:16;101419.44;;;18.69;45.63
37832;BME280;23671;38.090;-122.570;2023-06-14T07:02:44;101418.22;;;18.64;45.86
37832;BME280;23671;38.090;-122.570;2023-06-14T07:05:11;101408.50;;;18.63;45.90
37832;BME280;23671;38.090;-122.570;2023-06-14T07:07:38;101416.00;;;18.59;45.93
37832;BME280;23671;38.090;-122.570;2023-06-14T07:10:06;101409.28;;;18.55;45.80
37832;BME280;23671;38.090;-122.570;2023-06-14T07:12:34;101406.09;;;18.52;45.75
37832;BME280;23671;38.090;-122.570;2023-06-14T07:15:06;101406.69;;;18.46;45.96
37832;BME280;23671;38.090;-122.570;2023-06-14T07:17:35;101410.56;;;18.43;46.25
37832;BME280;23671;38.090;-122.570;2023-06-14T07:20:03;101409.81;;;18.41;45.98
37832;BME280;23671;38.090;-122.570;2023-06-14T07:22:41;101417.97;;;18.40;45.98
37832;BME280;23671;38.090;-122.570;2023-06-14T07:25:13;101416.78;;;18.34;46.04
37832;BME280;23671;38.090;-122.570;2023-06-14T07:27:44;101420.63;;;18.32;45.97
37832;BME280;23671;38.090;-122.570;2023-06-14T07:30:12;101412.03;;;18.28;46.16
37832;BME280;23671;38.090;-122.570;2023-06-14T07:32:39;101412.69;;;18.22;46.24
37832;BME280;23671;38.090;-122.570;2023-06-14T07:35:06;101407.63;;;18.19;46.24
37832;BME280;23671;38.090;-122.570;2023-06-14T07:37:33;101410.44;;;18.17;46.20
37832;BME280;23671;38.090;-122.570;2023-06-14T07:40:01;101405.56;;;18.13;46.25
37832;BME280;23671;38.090;-122.570;2023-06-14T07:42:34;101420.91;;;18.11;46.30
37832;BME280;23671;38.090;-122.570;2023-06-14T07:45:05;101418.72;;;18.06;46.51
37832;BME280;23671;38.090;-122.570;2023-06-14T07:47:33;101419.00;;;18.03;46.63
37832;BME280;23671;38.090;-122.570;2023-06-14T07:50:00;101421.81;;;18.02;46.36
37832;BME280;23671;38.090;-122.570;2023-06-14T07:52:27;101422.16;;;17.99;46.38
37832;BME280;23671;38.090;-122.570;2023-06-14T07:54:54;101414.56;;;17.94;46.62
37832;BME280;23671;38.090;-122.570;2023-06-14T07:57:22;101422.06;;;17.91;46.49
37832;BME280;23671;38.090;-122.570;2023-06-14T07:59:49;101419.66;;;17.88;46.77
37832;BME280;23671;38.090;-122.570;2023-06-14T08:02:16;101409.28;;;17.85;46.98
37832;BME280;23671;38.090;-122.570;2023-06-14T08:04:43;101410.44;;;17.82;46.90
37832;BME280;23671;38.090;-122.570;2023-06-14T08:07:10;101416.91;;;17.80;46.71
37832;BME280;23671;38.090;-122.570;2023-06-14T08:09:38;101409.91;;;17.79;46.86
37832;BME280;23671;38.090;-122.570;2023-06-14T08:12:06;101405.69;;;17.76;46.74
37832;BME280;23671;38.090;-122.570;2023-06-14T08:14:41;101406.00;;;17.73;46.94
37832;BME280;23671;38.090;-122.570;2023-06-14T08:17:08;101397.44;;;17.70;46.96
37832;BME280;23671;38.090;-122.570;2023-06-14T08:19:35;101399.13;;;17.71;47.32
37832;BME280;23671;38.090;-122.570;2023-06-14T08:22:03;101396.75;;;17.68;46.93
37832;BME280;23671;38.090;-122.570;2023-06-14T08:24:30;101394.25;;;17.66;46.81
37832;BME280;23671;38.090;-122.570;2023-06-14T08:26:57;101383.00;;;17.63;47.10
37832;BME280;23671;38.090;-122.570;2023-06-14T08:29:27;101376.84;;;17.62;47.00
37832;BME280;23671;38.090;-122.570;2023-06-14T08:31:55;101360.94;;;17.61;47.08
37832;BME280;23671;38.090;-122.570;2023-06-14T08:34:23;101370.81;;;17.60;47.04
37832;BME280;23671;38.090;-122.570;2023-06-14T08:36:53;101372.91;;;17.57;46.80
37832;BME280;23671;38.090;-122.570;2023-06-14T08:39:21;101375.59;;;17.57;47.03
37832;BME280;23671;38.090;-122.570;2023-06-14T08:41:48;101374.94;;;17.55;47.10
37832;BME280;23671;38.090;-122.570;2023-06-14T08:44:17;101375.22;;;17.52;47.37
37832;BME280;23671;38.090;-122.570;2023-06-14T08:46:45;101374.50;;;17.50;47.41
37832;BME280;23671;38.090;-122.570;2023-06-14T08:49:13;101391.63;;;17.47;47.53
37832;BME280;23671;38.090;-122.570;2023-06-14T08:51:43;101397.44;;;17.43;47.40
37832;BME280;23671;38.090;-122.570;2023-06-14T08:54:12;101391.25;;;17.42;47.59
37832;BME280;23671;38.090;-122.570;2023-06-14T08:56:39;101383.41;;;17.41;47.35
37832;BME280;23671;38.090;-122.570;2023-06-14T08:59:08;101376.50;;;17.38;47.33
37832;BME280;23671;38.090;-122.570;2023-06-14T09:01:37;101376.81;;;17.35;47.42
37832;BME280;23671;38.090;-122.570;2023-06-14T09:04:04;101369.63;;;17.36;47.58
37832;BME280;23671;38.090;-122.570;2023-06-14T09:06:34;101363.75;;;17.32;47.62
37832;BME280;23671;38.090;-122.570;2023-06-14T09:09:03;101362.94;;;17.32;47.57
37832;BME280;23671;38.090;-122.570;2023-06-14T09:11:31;101363.22;;;17.28;47.85
37832;BME280;23671;38.090;-122.570;2023-06-14T09:13:58;101347.19;;;17.28;47.43
37832;BME280;23671;38.090;-122.570;2023-06-14T09:16:26;101341.00;;;17.28;47.51
37832;BME280;23671;38.090;-122.570;2023-06-14T09:18:54;101342.31;;;17.24;47.66
37832;BME280;23671;38.090;-122.570;2023-06-14T09:21:21;101356.50;;;17.24;47.52
37832;BME280;23671;38.090;-122.570;2023-06-14T09:23:49;101347.78;;;17.22;47.48
37832;BME280;23671;38.090;-122.570;2023-06-14T09:26:17;101346.94;;;17.22;47.57
37832;BME280;23671;38.090;-122.570;2023-06-14T09:28:47;101339.25;;;17.19;47.62
37832;BME280;23671;38.090;-122.570;2023-06-14T09:31:19;101338.41;;;17.18;47.70
37832;BME280;23671;38.090;-122.570;2023-06-14T09:33:47;101349.38;;;17.15;47.73
37832;BME280;23671;38.090;-122.570;2023-06-14T09:36:25;101346.19;;;17.12;47.79
37832;BME280;23671;38.090;-122.570;2023-06-14T09:38:54;101356.00;;;17.11;47.75
37832;BME280;23671;38.090;-122.570;2023-06-14T09:41:31;101357.81;;;17.11;47.75
37832;BME280;23671;38.090;-122.570;2023-06-14T09:43:59;101361.63;;;17.08;48.07
37832;BME280;23671;38.090;-122.570;2023-06-14T09:46:31;101352.94;;;17.06;47.77
37832;BME280;23671;38.090;-122.570;2023-06-14T09:48:58;101353.94;;;17.05;48.09
37832;BME280;23671;38.090;-122.570;2023-06-14T09:51:27;101354.94;;;17.04;48.00
37832;BME280;23671;38.090;-122.570;2023-06-14T09:54:00;101359.56;;;17.02;48.03
37832;BME280;23671;38.090;-122.570;2023-06-14T09:56:41;101361.53;;;17.00;48.03
37832;BME280;23671;38.090;-122.570;2023-06-14T09:59:09;101360.69;;;17.00;48.04
37832;BME280;23671;38.090;-122.570;2023-06-14T10:01:41;101358.28;;;16.97;48.05
37832;BME280;23671;38.090;-122.570;2023-06-14T10:04:09;101346.81;;;16.96;48.21
37832;BME280;23671;38.090;-122.570;2023-06-14T10:06:39;101341.63;;;16.95;48.30
37832;BME280;23671;38.090;-122.570;2023-06-14T10:09:09;101350.59;;;16.94;48.33
37832;BME280;23671;38.090;-122.570;2023-06-14T10:11:36;101336.41;;;16.93;48.01
37832;BME280;23671;38.090;-122.570;2023-06-14T10:14:08;101335.59;;;16.93;48.30
37832;BME280;23671;38.090;-122.570;2023-06-14T10:24:52;101342.06;;;16.90;48.02
37832;BME280;23671;38.090;-122.570;2023-06-14T10:27:19;101346.69;;;16.88;48.21
37832;BME280;23671;38.090;-122.570;2023-06-14T10:32:24;101354.97;;;16.85;48.48
37832;BME280;23671;38.090;-122.570;2023-06-14T10:35:11;101358.66;;;16.84;48.50
37832;BME280;23671;38.090;-122.570;2023-06-14T10:37:42;101353.31;;;16.84;48.28
37832;BME280;23671;38.090;-122.570;2023-06-14T10:40:30;101357.09;;;16.82;48.40
37832;BME280;23671;38.090;-122.570;2023-06-14T10:42:57;101350.78;;;16.83;48.36
37832;BME280;23671;38.090;-122.570;2023-06-14T10:45:24;101349.25;;;16.80;48.34
37832;BME280;23671;38.090;-122.570;2023-06-14T10:47:51;101349.09;;;16.82;48.31
37832;BME280;23671;38.090;-122.570;2023-06-14T10:50:28;101342.25;;;16.79;48.54
37832;BME280;23671;38.090;-122.570;2023-06-14T10:52:56;101340.41;;;16.80;48.45
37832;BME280;23671;38.090;-122.570;2023-06-14T10:55:23;101338.88;;;16.77;48.19
37832;BME280;23671;38.090;-122.570;2023-06-14T10:57:55;101331.69;;;16.78;48.79
37832;BME280;23671;38.090;-122.570;2023-06-14T11:00:27;101333.69;;;16.76;48.79
37832;BME280;23671;38.090;-122.570;2023-06-14T11:06:00;101332.00;;;16.75;48.60
37832;BME280;23671;38.090;-122.570;2023-06-14T11:11:09;101333.13;;;16.72;48.78
37832;BME280;23671;38.090;-122.570;2023-06-14T11:13:44;101329.78;;;16.70;48.79
37832;BME280;23671;38.090;-122.570;2023-06-14T11:16:14;101328.09;;;16.69;48.71
37832;BME280;23671;38.090;-122.570;2023-06-14T11:18:42;101328.94;;;16.70;48.65
37832;BME280;23671;38.090;-122.570;2023-06-14T11:21:09;101328.09;;;16.69;48.73
37832;BME280;23671;38.090;-122.570;2023-06-14T11:23:36;101320.94;;;16.70;48.49
37832;BME280;23671;38.090;-122.570;2023-06-14T11:26:04;101321.06;;;16.68;48.90
37832;BME280;23671;38.090;-122.570;2023-06-14T11:28:41;101315.03;;;16.66;48.79
37832;BME280;23671;38.090;-122.570;2023-06-14T11:31:08;101312.69;;;16.63;48.96
37832;BME280;23671;38.090;-122.570;2023-06-14T11:33:36;101310.88;;;16.64;48.75
37832;BME280;23671;38.090;-122.570;2023-06-14T11:36:05;101306.34;;;16.64;49.05
37832;BME280;23671;38.090;-122.570;2023-06-14T11:38:38;101304.00;;;16.61;48.75
37832;BME280;23671;38.090;-122.570;2023-06-14T11:41:05;101301.16;;;16.63;49.17
37832;BME280;23671;38.090;-122.570;2023-06-14T11:43:32;101301.47;;;16.60;48.91
37832;BME280;23671;38.090;-122.570;2023-06-14T11:46:01;101295.13;;;16.61;49.16
37832;BME280;23671;38.090;-122.570;2023-06-14T11:48:41;101297.00;;;16.60;49.14
37832;BME280;23671;38.090;-122.570;2023-06-14T11:51:09;101297.97;;;16.59;49.12
37832;BME280;23671;38.090;-122.570;2023-06-14T11:53:37;101293.47;;;16.60;49.08
37832;BME280;23671;38.090;-122.570;2023-06-14T11:56:05;101288.28;;;16.58;49.25
37832;BME280;23671;38.090;-122.570;2023-06-14T11:58:32;101279.59;;;16.56;49.07
37832;BME280;23671;38.090;-122.570;2023-06-14T12:00:59;101287.59;;;16.56;49.06
37832;BME280;23671;38.090;-122.570;2023-06-14T12:03:26;101292.94;;;16.56;49.16
37832;BME280;23671;38.090;-122.570;2023-06-14T12:06:07;101285.91;;;16.55;49.35
37832;BME280;23671;38.090;-122.570;2023-06-14T12:08:36;101285.91;;;16.55;48.99
37832;BME280;23671;38.090;-122.570;2023-06-14T12:11:13;101284.09;;;16.56;49.26
37832;BME280;23671;38.090;-122.570;2023-06-14T12:13:44;101281.56;;;16.54;49.04
37832;BME280;23671;38.090;-122.570;2023-06-14T12:16:12;101290.53;;;16.53;49.06
37832;BME280;23671;38.090;-122.570;2023-06-14T12:18:41;101292.34;;;16.53;49.07
37832;BME280;23671;38.090;-122.570;2023-06-14T12:21:10;101288.03;;;16.52;49.31
37832;BME280;23671;38.090;-122.570;2023-06-14T12:23:43;101298.00;;;16.50;49.32
37832;BME280;23671;38.090;-122.570;2023-06-14T12:26:17;101297.00;;;16.51;49.16
37832;BME280;23671;38.090;-122.570;2023-06-14T12:28:48;101301.50;;;16.50;49.13
37832;BME280;23671;38.090;-122.570;2023-06-14T12:31:16;101310.31;;;16.51;49.27
37832;BME280;23671;38.090;-122.570;2023-06-14T12:33:45;101299.81;;;16.49;49.38
37832;BME280;23671;38.090;-122.570;2023-06-14T12:36:15;101311.31;;;16.50;49.49
37832;BME280;23671;38.090;-122.570;2023-06-14T12:38:43;101303.59;;;16.47;49.17
37832;BME280;23671;38.090;-122.570;2023-06-14T12:41:10;101307.06;;;16.47;49.29
37832;BME280;23671;38.090;-122.570;2023-06-14T12:43:37;101307.22;;;16.46;49.61